sensor_id;sensor_type;location;lat;lon;timestamp;pressure;altitude;pressure_sealevel;temperature;humidity
73101;BME280;61288;53.446;-2.266;2023-05-10T00:01:21;100843.56;;;8.36;98.53
73101;BME280;61288;53.446;-2.266;2023-05-10T00:03:46;100841.25;;;8.27;97.05
73101;BME280;61288;53.446;-2.266;2023-05-10T00:06:12;100837.81;;;8.27;98.06
73101;BME280;61288;53.446;-2.266;2023-05-10T00:08:37;100836.91;;;8.28;98.75
73101;BME280;61288;53.446;-2.266;2023-05-10T00:11:03;100843.03;;;8.25;98.49
73101;BME280;61288;53.446;-2.266;2023-05-10T00:13:28;100848.28;;;8.22;98.12
73101;BME280;61288;53.446;-2.266;2023-05-10T00:15:54;100845.72;;;8.20;98.62
73101;BME280;61288;53.446;-2.266;2023-05-10T00:18:20;100844.84;;;8.21;98.55
73101;BME280;61288;53.446;-2.266;2023-05-10T00:20:45;100850.94;;;8.19;98.65
73101;BME280;61288;53.446;-2.266;2023-05-10T00:23:14;100848.38;;;8.19;99.22
73101;BME280;61288;53.446;-2.266;2023-05-10T00:25:39;100843.38;;;8.13;97.95
73101;BME280;61288;53.446;-2.266;2023-05-10T00:28:05;100846.03;;;8.09;98.39
73101;BME280;61288;53.446;-2.266;2023-05-10T00:30:30;100834.06;;;8.07;98.51
73101;BME280;61288;53.446;-2.266;2023-05-10T00:32:56;100842.91;;;7.98;98.37
73101;BME280;61288;53.446;-2.266;2023-05-10T00:35:21;100831.19;;;7.86;96.84
73101;BME280;61288;53.446;-2.266;2023-05-10T00:37:47;100832.03;;;7.87;98.26
73101;BME280;61288;53.446;-2.266;2023-05-10T00:40:13;100834.72;;;7.82;97.61
73101;BME280;61288;53.446;-2.266;2023-05-10T00:42:39;100836.69;;;7.74;98.91
73101;BME280;61288;53.446;-2.266;2023-05-10T00:45:05;100836.72;;;7.72;99.34
73101;BME280;61288;53.446;-2.266;2023-05-10T00:47:31;100837.66;;;7.70;98.96
73101;BME280;61288;53.446;-2.266;2023-05-10T00:49:57;100839.44;;;7.68;98.43
73101;BME280;61288;53.446;-2.266;2023-05-10T00:52:22;100832.59;;;7.65;97.94
73101;BME280;61288;53.446;-2.266;2023-05-10T00:54:50;100835.25;;;7.63;98.44
73101;BME280;61288;53.446;-2.266;2023-05-10T00:57:17;100834.41;;;7.61;98.30
73101;BME280;61288;53.446;-2.266;2023-05-10T00:59:47;100834.53;;;7.57;98.56
73101;BME280;61288;53.446;-2.266;2023-05-10T01:02:13;100829.47;;;7.54;98.65
73101;BME280;61288;53.446;-2.266;2023-05-10T01:04:39;100826.09;;;7.50;98.30
73101;BME280;61288;53.446;-2.266;2023-05-10T01:07:04;100832.22;;;7.47;98.37
73101;BME280;61288;53.446;-2.266;2023-05-10T01:09:30;100827.09;;;7.44;99.82
73101;BME280;61288;53.446;-2.266;2023-05-10T01:11:57;100828.06;;;7.40;99.24
73101;BME280;61288;53.446;-2.266;2023-05-10T01:14:23;100830.66;;;7.40;99.23
73101;BME280;61288;53.446;-2.266;2023-05-10T01:16:49;100828.94;;;7.39;100.00
73101;BME280;61288;53.446;-2.266;2023-05-10T01:19:29;100829.00;;;7.37;100.00
73101;BME280;61288;53.446;-2.266;2023-05-10T01:27:24;100815.34;;;7.34;99.99
73101;BME280;61288;53.446;-2.266;2023-05-10T01:35:23;100826.59;;;7.31;100.00
73101;BME280;61288;53.446;-2.266;2023-05-10T01:40:44;100819.94;;;7.22;99.29
73101;BME280;61288;53.446;-2.266;2023-05-10T01:43:28;100820.19;;;7.12;99.13
73101;BME280;61288;53.446;-2.266;2023-05-10T01:46:04;100822.72;;;7.13;100.00
73101;BME280;61288;53.446;-2.266;2023-05-10T01:48:40;100828.00;;;7.08;99.44
73101;BME280;61288;53.446;-2.266;2023-05-10T01:51:13;100834.84;;;7.10;99.91
73101;BME280;61288;53.446;-2.266;2023-05-10T01:53:42;100833.09;;;7.10;100.00
73101;BME280;61288;53.446;-2.266;2023-05-10T01:56:09;100829.63;;;7.11;100.00
73101;BME280;61288;53.446;-2.266;2023-05-10T01:58:37;100836.44;;;7.14;100.00
73101;BME280;61288;53.446;-2.266;2023-05-10T02:01:07;100830.47;;;7.13;100.00
73101;BME280;61288;53.446;-2.266;2023-05-10T02:03:35;100840.78;;;7.13;100.00
73101;BME280;61288;53.446;-2.266;2023-05-10T02:06:02;100835.63;;;7.12;100.00
73101;BME280;61288;53.446;-2.266;2023-05-10T02:08:28;100832.19;;;7.13;100.00
73101;BME280;61288;53.446;-2.266;2023-05-10T02:10:56;100845.13;;;7.10;100.00
73101;BME280;61288;53.446;-2.266;2023-05-10T02:13:24;100840.94;;;7.05;100.00
73101;BME280;61288;53.446;-2.266;2023-05-10T02:15:53;100845.16;;;7.08;100.00
73101;BME280;61288;53.446;-2.266;2023-05-10T02:18:21;100848.69;;;7.04;100.00
73101;BME280;61288;53.446;-2.266;2023-05-10T02:20:47;100854.88;;;6.98;100.00
73101;BME280;61288;53.446;-2.266;2023-05-10T02:23:14;100846.41;;;6.91;100.00
73101;BME280;61288;53.446;-2.266;2023-05-10T02:25:43;100843.03;;;6.89;100.00
73101;BME280;61288;53.446;-2.266;2023-05-10T02:28:10;100838.13;;;6.78;99.41
73101;BME280;61288;53.446;-2.266;2023-05-10T02:30:37;100844.16;;;6.77;100.00
73101;BME280;61288;53.446;-2.266;2023-05-10T02:33:04;100839.97;;;6.72;99.60
73101;BME280;61288;53.446;-2.266;2023-05-10T02:35:32;100841.75;;;6.70;100.00
73101;BME280;61288;53.446;-2.266;2023-05-10T02:37:59;100850.41;;;6.67;99.84
73101;BME280;61288;53.446;-2.266;2023-05-10T02:40:27;100845.25;;;6.67;100.00
73101;BME280;61288;53.446;-2.266;2023-05-10T02:42:54;100852.09;;;6.67;100.00
73101;BME280;61288;53.446;-2.266;2023-05-10T02:45:24;100848.72;;;6.64;100.00
73101;BME280;61288;53.446;-2.266;2023-05-10T02:47:52;100857.25;;;6.67;100.00
73101;BME280;61288;53.446;-2.266;2023-05-10T02:50:18;100862.47;;;6.65;99.97
73101;BME280;61288;53.446;-2.266;2023-05-10T02:52:46;100858.19;;;6.64;99.72
73101;BME280;61288;53.446;-2.266;2023-05-10T02:55:15;100865.06;;;6.62;99.71
73101;BME280;61288;53.446;-2.266;2023-05-10T02:57:50;100867.84;;;6.53;99.32
73101;BME280;61288;53.446;-2.266;2023-05-10T03:00:17;100867.13;;;6.46;99.74
73101;BME280;61288;53.446;-2.266;2023-05-10T03:02:44;100867.09;;;6.49;100.00
73101;BME280;61288;53.446;-2.266;2023-05-10T03:05:09;100865.34;;;6.49;100.00
73101;BME280;61288;53.446;-2.266;2023-05-10T03:07:35;100866.22;;;6.48;100.00
73101;BME280;61288;53.446;-2.266;2023-05-10T03:10:04;100863.72;;;6.44;100.00
73101;BME280;61288;53.446;-2.266;2023-05-10T03:12:52;100870.78;;;6.35;100.00
73101;BME280;61288;53.446;-2.266;2023-05-10T03:18:22;100866.50;;;6.34;100.00
73101;BME280;61288;53.446;-2.266;2023-05-10T03:20:50;100858.84;;;6.33;100.00
73101;BME280;61288;53.446;-2.266;2023-05-10T03:25:57;100857.16;;;6.30;100.00
73101;BME280;61288;53.446;-2.266;2023-05-10T03:28:25;100852.91;;;6.28;100.00
73101;BME280;61288;53.446;-2.266;2023-05-10T03:30:52;100849.44;;;6.29;100.00
73101;BME280;61288;53.446;-2.266;2023-05-10T03:33:18;100850.31;;;6.29;100.00
73101;BME280;61288;53.446;-2.266;2023-05-10T03:35:43;100850.31;;;6.28;100.00
73101;BME280;61288;53.446;-2.266;2023-05-10T03:38:11;100860.69;;;6.25;100.00
73101;BME280;61288;53.446;-2.266;2023-05-10T03:40:37;100857.22;;;6.27;100.00
73101;BME280;61288;53.446;-2.266;2023-05-10T03:43:02;100860.53;;;6.34;100.00
73101;BME280;61288;53.446;-2.266;2023-05-10T03:45:28;100860.47;;;6.37;100.00
73101;BME280;61288;53.446;-2.266;2023-05-10T03:47:53;100862.91;;;6.43;100.00
73101;BME280;61288;53.446;-2.266;2023-05-10T03:50:20;100861.06;;;6.48;100.00
73101;BME280;61288;53.446;-2.266;2023-05-10T03:52:45;100865.41;;;6.48;100.00
73101;BME280;61288;53.446;-2.266;2023-05-10T03:55:11;100859.38;;;6.47;100.00
73101;BME280;61288;53.446;-2.266;2023-05-10T03:57:37;100861.06;;;6.50;100.00
73101;BME280;61288;53.446;-2.266;2023-05-10T04:00:03;100861.81;;;6.54;100.00
73101;BME280;61288;53.446;-2.266;2023-05-10T04:02:29;100859.16;;;6.58;100.00
73101;BME280;61288;53.446;-2.266;2023-05-10T04:04:55;100858.22;;;6.62;100.00
73101;BME280;61288;53.446;-2.266;2023-05-10T04:07:22;100849.53;;;6.67;100.00
73101;BME280;61288;53.446;-2.266;2023-05-10T04:09:47;100846.00;;;6.71;100.00
73101;BME280;61288;53.446;-2.266;2023-05-10T04:12:13;100855.50;;;6.69;100.00
73101;BME280;61288;53.446;-2.266;2023-05-10T04:14:38;100854.72;;;6.65;100.00
73101;BME280;61288;53.446;-2.266;2023-05-10T04:17:04;100857.34;;;6.62;100.00
73101;BME280;61288;53.446;-2.266;2023-05-10T04:19:31;100859.91;;;6.62;100.00
73101;BME280;61288;53.446;-2.266;2023-05-10T04:21:58;100864.31;;;6.57;100.00
73101;BME280;61288;53.446;-2.266;2023-05-10T04:24:25;100856.66;;;6.55;100.00
73101;BME280;61288;53.446;-2.266;2023-05-10T04:26:51;100861.75;;;6.57;100.00
73101;BME280;61288;53.446;-2.266;2023-05-10T04:29:17;100849.69;;;6.60;100.00
73101;BME280;61288;53.446;-2.266;2023-05-10T04:31:42;100860.88;;;6.58;100.00
73101;BME280;61288;53.446;-2.266;2023-05-10T04:34:08;100847.94;;;6.61;100.00
73101;BME280;61288;53.446;-2.266;2023-05-10T04:36:34;100863.34;;;6.62;100.00
73101;BME280;61288;53.446;-2.266;2023-05-10T04:39:03;100860.66;;;6.69;100.00
73101;BME280;61288;53.446;-2.266;2023-05-10T04:41:28;100856.25;;;6.74;100.00
73101;BME280;61288;53.446;-2.266;2023-05-10T04:43:54;100858.66;;;6.82;100.00
73101;BME280;61288;53.446;-2.266;2023-05-10T04:46:20;100862.84;;;6.86;100.00
73101;BME280;61288;53.446;-2.266;2023-05-10T04:48:45;100860.94;;;6.94;100.00
73101;BME280;61288;53.446;-2.266;2023-05-10T04:51:11;100856.50;;;7.01;100.00
73101;BME280;61288;53.446;-2.266;2023-05-10T04:53:36;100864.09;;;7.07;100.00
73101;BME280;61288;53.446;-2.266;2023-05-10T04:56:02;100864.00;;;7.12;100.00
73101;BME280;61288;53.446;-2.266;2023-05-10T04:58:28;100861.31;;;7.16;100.00
73101;BME280;61288;53.446;-2.266;2023-05-10T05:00:53;100861.97;;;7.25;100.00
73101;BME280;61288;53.446;-2.266;2023-05-10T05:03:19;100863.56;;;7.30;100.00
73101;BME280;61288;53.446;-2.266;2023-05-10T05:05:45;100863.50;;;7.32;100.00
73101;BME280;61288;53.446;-2.266;2023-05-10T05:08:10;100861.78;;;7.32;100.00
73101;BME280;61288;53.446;-2.266;2023-05-10T05:10:36;100865.19;;;7.33;100.00
73101;BME280;61288;53.446;-2.266;2023-05-10T05:13:01;100869.59;;;7.29;100.00
73101;BME280;61288;53.446;-2.266;2023-05-10T05:15:27;100865.25;;;7.31;100.00
73101;BME280;61288;53.446;-2.266;2023-05-10T05:17:53;100866.97;;;7.31;100.00
73101;BME280;61288;53.446;-2.266;2023-05-10T05:20:19;100871.31;;;7.29;100.00
73101;BME280;61288;53.446;-2.266;2023-05-10T05:22:44;100867.03;;;7.28;100.00
73101;BME280;61288;53.446;-2.266;2023-05-10T05:25:10;100870.50;;;7.27;100.00
73101;BME280;61288;53.446;-2.266;2023-05-10T05:27:37;100863.59;;;7.27;100.00
73101;BME280;61288;53.446;-2.266;2023-05-10T05:30:02;100867.84;;;7.30;100.00
73101;BME280;61288;53.446;-2.266;2023-05-10T05:32:29;100868.63;;;7.33;100.00
73101;BME280;61288;53.446;-2.266;2023-05-10T05:34:54;100859.97;;;7.36;100.00
73101;BME280;61288;53.446;-2.266;2023-05-10T05:37:20;100861.56;;;7.40;100.00
73101;BME280;61288;53.446;-2.266;2023-05-10T05:39:49;100864.88;;;7.47;100.00
73101;BME280;61288;53.446;-2.266;2023-05-10T05:42:15;100869.03;;;7.53;100.00
73101;BME280;61288;53.446;-2.266;2023-05-10T05:44:43;100872.41;;;7.55;100.00
73101;BME280;61288;53.446;-2.266;2023-05-10T05:47:09;100876.59;;;7.59;100.00
73101;BME280;61288;53.446;-2.266;2023-05-10T05:49:34;100875.56;;;7.66;100.00
73101;BME280;61288;53.446;-2.266;2023-05-10T05:52:00;100877.16;;;7.72;100.00
73101;BME280;61288;53.446;-2.266;2023-05-10T05:54:26;100872.63;;;7.80;100.00
73101;BME280;61288;53.446;-2.266;2023-05-10T05:56:56;100876.72;;;7.87;100.00
73101;BME280;61288;53.446;-2.266;2023-05-10T05:59:22;100882.59;;;7.92;100.00
73101;BME280;61288;53.446;-2.266;2023-05-10T06:01:48;100885.06;;;7.99;100.00
73101;BME280;61288;53.446;-2.266;2023-05-10T06:04:14;100889.00;;;8.10;100.00
73101;BME280;61288;53.446;-2.266;2023-05-10T06:06:39;100884.34;;;8.23;100.00
73101;BME280;61288;53.446;-2.266;2023-05-10T06:09:05;100897.56;;;8.44;100.00
73101;BME280;61288;53.446;-2.266;2023-05-10T06:11:30;100896.31;;;8.59;100.00
73101;BME280;61288;53.446;-2.266;2023-05-10T06:14:00;100893.41;;;8.70;100.00
73101;BME280;61288;53.446;-2.266;2023-05-10T06:16:27;100891.41;;;8.80;100.00
73101;BME280;61288;53.446;-2.266;2023-05-10T06:18:53;100898.22;;;8.82;100.00
73101;BME280;61288;53.446;-2.266;2023-05-10T06:21:18;100894.88;;;8.79;100.00
73101;BME280;61288;53.446;-2.266;2023-05-10T06:23:44;100891.31;;;8.83;100.00
73101;BME280;61288;53.446;-2.266;2023-05-10T06:26:09;100890.22;;;8.90;100.00
73101;BME280;61288;53.446;-2.266;2023-05-10T06:28:35;100900.28;;;9.00;100.00
73101;BME280;61288;53.446;-2.266;2023-05-10T06:31:04;100899.09;;;9.10;100.00
73101;BME280;61288;53.446;-2.266;2023-05-10T06:33:30;100904.78;;;9.21;99.72
73101;BME280;61288;53.446;-2.266;2023-05-10T06:35:56;100895.16;;;9.27;98.95
73101;BME280;61288;53.446;-2.266;2023-05-10T06:38:22;100901.88;;;9.32;99.75
73101;BME280;61288;53.446;-2.266;2023-05-10T06:40:48;100903.28;;;9.41;98.65
73101;BME280;61288;53.446;-2.266;2023-05-10T06:43:13;100901.13;;;9.56;98.50
73101;BME280;61288;53.446;-2.266;2023-05-10T06:45:39;100900.66;;;9.70;97.90
73101;BME280;61288;53.446;-2.266;2023-05-10T06:48:04;100898.00;;;9.71;96.93
73101;BME280;61288;53.446;-2.266;2023-05-10T06:50:30;100897.00;;;9.75;96.33
73101;BME280;61288;53.446;-2.266;2023-05-10T06:52:55;100898.03;;;9.96;97.39
73101;BME280;61288;53.446;-2.266;2023-05-10T06:55:21;100899.25;;;10.11;96.84
73101;BME280;61288;53.446;-2.266;2023-05-10T06:57:46;100892.59;;;10.28;95.40
73101;BME280;61288;53.446;-2.266;2023-05-10T07:00:13;100897.94;;;10.23;95.08
73101;BME280;61288;53.446;-2.266;2023-05-10T07:02:39;100894.16;;;10.32;94.81
73101;BME280;61288;53.446;-2.266;2023-05-10T07:05:05;100897.66;;;10.31;94.24
73101;BME280;61288;53.446;-2.266;2023-05-10T07:07:30;100900.53;;;10.49;92.21
73101;BME280;61288;53.446;-2.266;2023-05-10T07:09:56;100900.06;;;10.61;92.24
73101;BME280;61288;53.446;-2.266;2023-05-10T07:12:23;100901.97;;;10.80;91.77
73101;BME280;61288;53.446;-2.266;2023-05-10T07:14:48;100903.59;;;11.05;92.19
73101;BME280;61288;53.446;-2.266;2023-05-10T07:17:14;100908.88;;;11.24;90.58
73101;BME280;61288;53.446;-2.266;2023-05-10T07:19:40;100903.47;;;11.30;89.66
73101;BME280;61288;53.446;-2.266;2023-05-10T07:22:05;100903.34;;;11.33;89.56
73101;BME280;61288;53.446;-2.266;2023-05-10T07:24:32;100908.34;;;11.16;89.16
73101;BME280;61288;53.446;-2.266;2023-05-10T07:26:58;100903.16;;;11.16;88.85
73101;BME280;61288;53.446;-2.266;2023-05-10T07:29:24;100904.44;;;11.27;87.77
73101;BME280;61288;53.446;-2.266;2023-05-10T07:31:49;100894.41;;;11.40;87.32
73101;BME280;61288;53.446;-2.266;2023-05-10T07:34:15;100906.50;;;11.40;87.33
73101;BME280;61288;53.446;-2.266;2023-05-10T07:36:40;100901.53;;;11.35;87.17
73101;BME280;61288;53.446;-2.266;2023-05-10T07:39:06;100907.63;;;11.34;88.03
73101;BME280;61288;53.446;-2.266;2023-05-10T07:41:32;100903.25;;;11.35;88.06
73101;BME280;61288;53.446;-2.266;2023-05-10T07:43:58;100902.19;;;11.40;88.25
73101;BME280;61288;53.446;-2.266;2023-05-10T07:46:23;100911.56;;;11.43;88.09
73101;BME280;61288;53.446;-2.266;2023-05-10T07:48:49;100904.78;;;11.40;87.90
73101;BME280;61288;53.446;-2.266;2023-05-10T07:51:14;100908.31;;;11.60;88.24
73101;BME280;61288;53.446;-2.266;2023-05-10T07:53:40;100897.88;;;11.82;88.04
73101;BME280;61288;53.446;-2.266;2023-05-10T07:58:46;100899.84;;;12.17;85.28
73101;BME280;61288;53.446;-2.266;2023-05-10T08:01:11;100896.78;;;12.28;83.44
73101;BME280;61288;53.446;-2.266;2023-05-10T08:03:36;100898.06;;;12.38;83.86
73101;BME280;61288;53.446;-2.266;2023-05-10T08:06:02;100895.13;;;12.46;82.60
73101;BME280;61288;53.446;-2.266;2023-05-10T08:08:28;100897.94;;;12.61;81.33
73101;BME280;61288;53.446;-2.266;2023-05-10T08:10:54;100894.34;;;12.82;83.50
73101;BME280;61288;53.446;-2.266;2023-05-10T08:13:19;100901.44;;;12.98;80.22
73101;BME280;61288;53.446;-2.266;2023-05-10T08:15:45;100899.28;;;13.06;81.47
73101;BME280;61288;53.446;-2.266;2023-05-10T08:18:11;100898.53;;;13.04;81.13
73101;BME280;61288;53.446;-2.266;2023-05-10T08:20:37;100906.09;;;13.09;82.24
73101;BME280;61288;53.446;-2.266;2023-05-10T08:23:03;100900.22;;;13.05;79.85
73101;BME280;61288;53.446;-2.266;2023-05-10T08:25:28;100906.38;;;13.03;80.76
73101;BME280;61288;53.446;-2.266;2023-05-10T08:27:54;100906.09;;;13.09;81.20
73101;BME280;61288;53.446;-2.266;2023-05-10T08:30:20;100912.81;;;12.95;81.22
73101;BME280;61288;53.446;-2.266;2023-05-10T08:32:46;100915.91;;;12.84;80.67
73101;BME280;61288;53.446;-2.266;2023-05-10T08:35:12;100903.47;;;12.72;81.74
73101;BME280;61288;53.446;-2.266;2023-05-10T08:37:39;100914.38;;;12.80;82.46
73101;BME280;61288;53.446;-2.266;2023-05-10T08:40:05;100908.59;;;12.93;83.38
73101;BME280;61288;53.446;-2.266;2023-05-10T08:42:34;100904.47;;;12.69;81.41
73101;BME280;61288;53.446;-2.266;2023-05-10T08:45:01;100902.22;;;12.81;83.68
73101;BME280;61288;53.446;-2.266;2023-05-10T08:47:27;100905.66;;;12.81;82.51
73101;BME280;61288;53.446;-2.266;2023-05-10T08:49:54;100903.22;;;12.59;82.51
73101;BME280;61288;53.446;-2.266;2023-05-10T08:52:21;100902.34;;;12.59;82.88
73101;BME280;61288;53.446;-2.266;2023-05-10T08:54:51;100908.88;;;12.67;83.01
73101;BME280;61288;53.446;-2.266;2023-05-10T08:57:17;100907.06;;;12.69;83.22
73101;BME280;61288;53.446;-2.266;2023-05-10T08:59:43;100908.59;;;12.74;83.33
73101;BME280;61288;53.446;-2.266;2023-05-10T09:02:10;100905.44;;;12.86;80.85
73101;BME280;61288;53.446;-2.266;2023-05-10T09:04:36;100906.84;;;12.93;82.50
73101;BME280;61288;53.446;-2.266;2023-05-10T09:07:02;100912.34;;;12.87;81.66
73101;BME280;61288;53.446;-2.266;2023-05-10T09:09:28;100909.03;;;12.83;83.91
73101;BME280;61288;53.446;-2.266;2023-05-10T09:11:54;100906.84;;;12.93;85.27
73101;BME280;61288;53.446;-2.266;2023-05-10T09:14:20;100908.78;;;13.07;84.74
73101;BME280;61288;53.446;-2.266;2023-05-10T09:16:46;100908.53;;;12.94;81.37
73101;BME280;61288;53.446;-2.266;2023-05-10T09:19:12;100909.50;;;12.73;81.93
73101;BME280;61288;53.446;-2.266;2023-05-10T09:21:38;100906.56;;;12.61;83.32
73101;BME280;61288;53.446;-2.266;2023-05-10T09:24:04;100915.72;;;12.51;84.72
73101;BME280;61288;53.446;-2.266;2023-05-10T09:26:30;100904.66;;;12.26;85.30
73101;BME280;61288;53.446;-2.266;2023-05-10T09:28:57;100914.34;;;12.23;86.00
73101;BME280;61288;53.446;-2.266;2023-05-10T09:31:25;100908.28;;;12.22;86.98
73101;BME280;61288;53.446;-2.266;2023-05-10T09:34:08;100911.31;;;12.32;86.74
73101;BME280;61288;53.446;-2.266;2023-05-10T09:36:33;100905.50;;;12.65;87.44
73101;BME280;61288;53.446;-2.266;2023-05-10T09:38:59;100909.47;;;13.48;87.97
73101;BME280;61288;53.446;-2.266;2023-05-10T09:41:25;100907.47;;;13.88;84.63
73101;BME280;61288;53.446;-2.266;2023-05-10T09:43:55;100899.84;;;14.19;82.05
73101;BME280;61288;53.446;-2.266;2023-05-10T09:46:22;100904.56;;;14.28;82.64
73101;BME280;61288;53.446;-2.266;2023-05-10T09:48:48;100920.09;;;14.13;82.12
73101;BME280;61288;53.446;-2.266;2023-05-10T09:51:24;100905.88;;;13.85;82.51
73101;BME280;61288;53.446;-2.266;2023-05-10T09:54:24;100912.06;;;13.48;86.58
73101;BME280;61288;53.446;-2.266;2023-05-10T09:56:49;100906.34;;;13.22;87.96
73101;BME280;61288;53.446;-2.266;2023-05-10T09:59:15;100911.53;;;13.04;90.15
73101;BME280;61288;53.446;-2.266;2023-05-10T10:01:41;100905.28;;;12.89;91.37
73101;BME280;61288;53.446;-2.266;2023-05-10T10:04:07;100903.19;;;12.78;92.96
73101;BME280;61288;53.446;-2.266;2023-05-10T10:06:38;100911.56;;;12.66;94.16
73101;BME280;61288;53.446;-2.266;2023-05-10T10:09:04;100911.00;;;12.59;94.45
73101;BME280;61288;53.446;-2.266;2023-05-10T10:11:30;100913.03;;;12.52;94.48
73101;BME280;61288;53.446;-2.266;2023-05-10T10:13:56;100914.81;;;12.52;95.76
73101;BME280;61288;53.446;-2.266;2023-05-10T10:16:23;100915.28;;;12.60;96.05
73101;BME280;61288;53.446;-2.266;2023-05-10T10:18:49;100909.38;;;12.95;97.15
73101;BME280;61288;53.446;-2.266;2023-05-10T10:21:16;100901.44;;;13.15;96.85
73101;BME280;61288;53.446;-2.266;2023-05-10T10:23:41;100908.69;;;13.28;96.26
73101;BME280;61288;53.446;-2.266;2023-05-10T10:26:08;100908.28;;;13.36;95.08
73101;BME280;61288;53.446;-2.266;2023-05-10T10:28:40;100905.16;;;13.29;91.69
73101;BME280;61288;53.446;-2.266;2023-05-10T10:31:46;100900.88;;;13.28;93.00
73101;BME280;61288;53.446;-2.266;2023-05-10T10:34:26;100906.84;;;13.30;92.95
73101;BME280;61288;53.446;-2.266;2023-05-10T10:36:55;100902.25;;;13.35;93.02
73101;BME280;61288;53.446;-2.266;2023-05-10T10:39:22;100899.84;;;13.31;91.89
73101;BME280;61288;53.446;-2.266;2023-05-10T10:41:54;100905.44;;;13.23;92.39
73101;BME280;61288;53.446;-2.266;2023-05-10T11:02:49;100913.78;;;12.74;89.59
73101;BME280;61288;53.446;-2.266;2023-05-10T11:08:32;100907.16;;;12.49;94.32
73101;BME280;61288;53.446;-2.266;2023-05-10T11:15:57;100908.03;;;12.28;99.86
73101;BME280;61288;53.446;-2.266;2023-05-10T11:20:58;100913.00;;;12.33;100.00
73101;BME280;61288;53.446;-2.266;2023-05-10T11:23:58;100916.53;;;12.32;100.00
73101;BME280;61288;53.446;-2.266;2023-05-10T11:26:25;100920.09;;;12.10;100.00
73101;BME280;61288;53.446;-2.266;2023-05-10T11:28:53;100917.69;;;12.06;100.00
73101;BME280;61288;53.446;-2.266;2023-05-10T11:31:23;100915.31;;;11.99;100.00
73101;BME280;61288;53.446;-2.266;2023-05-10T11:33:59;100920.09;;;12.10;100.00
73101;BME280;61288;53.446;-2.266;2023-05-10T11:36:33;100922.78;;;12.28;100.00
73101;BME280;61288;53.446;-2.266;2023-05-10T11:39:00;100915.13;;;12.44;100.00
73101;BME280;61288;53.446;-2.266;2023-05-10T11:41:27;100927.22;;;12.64;100.00
73101;BME280;61288;53.446;-2.266;2023-05-10T11:43:54;100926.69;;;12.77;100.00
73101;BME280;61288;53.446;-2.266;2023-05-10T11:46:23;100928.13;;;12.63;100.00
73101;BME280;61288;53.446;-2.266;2023-05-10T11:48:50;100925.19;;;12.52;99.84
73101;BME280;61288;53.446;-2.266;2023-05-10T11:51:23;100924.47;;;12.29;98.72
73101;BME280;61288;53.446;-2.266;2023-05-10T11:53:54;100926.88;;;12.13;98.54
73101;BME280;61288;53.446;-2.266;2023-05-10T11:56:21;100925.16;;;11.91;100.00
73101;BME280;61288;53.446;-2.266;2023-05-10T11:58:56;100935.34;;;11.75;100.00
73101;BME280;61288;53.446;-2.266;2023-05-10T12:01:22;100931.69;;;11.60;100.00
73101;BME280;61288;53.446;-2.266;2023-05-10T12:03:50;100933.59;;;11.55;100.00
73101;BME280;61288;53.446;-2.266;2023-05-10T12:06:17;100931.06;;;11.53;100.00
73101;BME280;61288;53.446;-2.266;2023-05-10T12:08:47;100928.53;;;11.52;100.00
73101;BME280;61288;53.446;-2.266;2023-05-10T12:11:15;100926.47;;;11.60;100.00
73101;BME280;61288;53.446;-2.266;2023-05-10T12:13:42;100919.84;;;11.74;100.00
73101;BME280;61288;53.446;-2.266;2023-05-10T12:16:19;100920.50;;;11.99;100.00
73101;BME280;61288;53.446;-2.266;2023-05-10T12:18:45;100908.88;;;12.29;100.00
73101;BME280;61288;53.446;-2.266;2023-05-10T12:21:11;100913.16;;;12.30;100.00
73101;BME280;61288;53.446;-2.266;2023-05-10T12:23:38;100910.03;;;12.81;100.00
73101;BME280;61288;53.446;-2.266;2023-05-10T12:26:04;100915.47;;;13.13;100.00
73101;BME280;61288;53.446;-2.266;2023-05-10T12:28:31;100911.06;;;13.68;100.00
73101;BME280;61288;53.446;-2.266;2023-05-10T12:30:57;100911.53;;;14.27;100.00
73101;BME280;61288;53.446;-2.266;2023-05-10T12:33:23;100910.03;;;14.55;96.00
73101;BME280;61288;53.446;-2.266;2023-05-10T12:35:53;100912.69;;;14.71;99.25
73101;BME280;61288;53.446;-2.266;2023-05-10T12:38:36;100917.41;;;15.13;96.75
73101;BME280;61288;53.446;-2.266;2023-05-10T12:41:05;100909.50;;;14.98;93.91
73101;BME280;61288;53.446;-2.266;2023-05-10T12:43:32;100908.13;;;14.59;90.71
73101;BME280;61288;53.446;-2.266;2023-05-10T12:46:03;100911.63;;;14.08;91.17
73101;BME280;61288;53.446;-2.266;2023-05-10T12:48:29;100920.28;;;13.57;95.38
73101;BME280;61288;53.446;-2.266;2023-05-10T12:50:56;100917.38;;;13.46;94.64
73101;BME280;61288;53.446;-2.266;2023-05-10T12:53:21;100914.94;;;13.43;96.33
73101;BME280;61288;53.446;-2.266;2023-05-10T12:55:47;100917.78;;;13.37;97.59
73101;BME280;61288;53.446;-2.266;2023-05-10T12:58:12;100913.94;;;13.26;98.18
73101;BME280;61288;53.446;-2.266;2023-05-10T13:00:38;100925.09;;;13.11;98.20
73101;BME280;61288;53.446;-2.266;2023-05-10T13:03:04;100921.38;;;12.97;98.23
73101;BME280;61288;53.446;-2.266;2023-05-10T13:05:33;100918.94;;;12.94;99.36
73101;BME280;61288;53.446;-2.266;2023-05-10T13:07:58;100915.69;;;12.89;99.16
73101;BME280;61288;53.446;-2.266;2023-05-10T13:10:24;100912.25;;;12.89;100.00
73101;BME280;61288;53.446;-2.266;2023-05-10T13:12:50;100915.56;;;12.92;100.00
73101;BME280;61288;53.446;-2.266;2023-05-10T13:15:16;100919.19;;;13.07;100.00
73101;BME280;61288;53.446;-2.266;2023-05-10T13:17:42;100926.53;;;13.17;100.00
73101;BME280;61288;53.446;-2.266;2023-05-10T13:20:08;100918.75;;;13.17;99.40
73101;BME280;61288;53.446;-2.266;2023-05-10T13:22:35;100916.53;;;13.26;100.00
73101;BME280;61288;53.446;-2.266;2023-05-10T13:25:01;100926.94;;;13.26;100.00
73101;BME280;61288;53.446;-2.266;2023-05-10T13:27:26;100925.13;;;13.28;100.00
73101;BME280;61288;53.446;-2.266;2023-05-10T13:29:52;100922.31;;;13.33;100.00
73101;BME280;61288;53.446;-2.266;2023-05-10T13:32:18;100919.69;;;13.33;99.82